createdAt,value
2019-04-05T00:00:48.988Z,74.96
2019-04-05T00:01:48.975Z,75.47
2019-04-05T00:02:48.967Z,75.18
2019-04-05T00:03:48.961Z,75.24
2019-04-05T00:04:48.949Z,75.53
2019-04-05T00:05:48.943Z,75.81
2019-04-05T00:06:48.934Z,75.62
2019-04-05T00:07:48.922Z,75.24
2019-04-05T00:08:48.914Z,75.62
2019-04-05T00:09:48.906Z,75.72
2019-04-05T00:10:48.895Z,75.34
2019-04-05T00:11:48.890Z,75.91
2019-04-05T00:17:48.833Z,76.77
2019-04-05T00:18:48.826Z,76.2
2019-04-05T00:19:48.817Z,75.81
2019-04-05T00:20:48.815Z,76.48
2019-04-05T00:21:48.797Z,76.67
2019-04-05T00:22:48.798Z,76.96
2019-04-05T00:23:48.782Z,76.77
2019-04-05T00:24:48.774Z,76.96
2019-04-05T00:25:48.520Z,76.86
2019-04-05T00:26:48.752Z,76.86
2019-04-05T00:27:48.745Z,76.39
2019-04-05T00:28:51.473Z,76.67
2019-04-05T00:29:48.728Z,76.86
2019-04-05T00:30:48.770Z,77.06
2019-04-05T00:31:48.713Z,77.15
2019-04-05T01:47:48.004Z,80.79
2019-04-05T01:48:47.995Z,80.69
2019-04-05T01:49:47.982Z,80.69
2019-04-05T01:50:47.976Z,81.17
2019-04-05T01:51:47.966Z,80.98
2019-04-05T01:52:47.960Z,81.36
2019-04-05T01:53:47.949Z,81.36
2019-04-05T01:54:47.941Z,81.26
2019-04-05T01:55:47.686Z,80.98
2019-04-05T01:56:47.960Z,81.65
2019-04-05T02:00:47.635Z,81.07
2019-04-05T02:01:47.870Z,81.36
2019-04-05T02:02:47.857Z,80.79
2019-04-05T02:03:47.856Z,80.79
2019-04-05T02:04:47.839Z,80.88
2019-04-05T02:05:47.587Z,81.07
2019-04-05T02:06:47.820Z,81.07
2019-04-05T02:07:47.809Z,80.98
2019-04-05T02:08:47.799Z,81.07
2019-04-05T02:09:47.790Z,80.98
2019-04-05T02:10:47.536Z,81.46
2019-04-05T02:11:47.769Z,81.26
2019-04-05T02:12:47.765Z,81.17
2019-04-05T02:13:47.752Z,81.36
2019-04-05T02:14:47.738Z,81.65
2019-04-05T02:15:47.487Z,81.74
2019-04-05T02:16:47.722Z,81.74
2019-04-05T02:17:47.711Z,81.65
2019-04-05T02:18:47.704Z,81.93
2019-04-05T02:19:47.701Z,81.84
2019-04-05T02:20:47.439Z,82.46
2019-04-05T02:21:47.672Z,82.65
2019-04-05T02:22:47.660Z,82.37
2019-04-05T02:23:47.652Z,82.08
2019-04-05T02:24:47.644Z,81.89
2019-04-05T02:25:47.385Z,82.46
2019-04-05T02:26:47.622Z,82.56
2019-04-05T02:27:47.613Z,82.46
2019-04-05T02:28:47.601Z,82.65
2019-04-05T02:29:47.594Z,82.84
2019-04-05T02:30:47.337Z,82.37
2019-04-05T02:31:47.586Z,82.75
2019-04-05T02:32:47.562Z,82.65
2019-04-05T02:33:47.563Z,82.65
2019-04-05T02:34:47.556Z,82.75
2019-04-05T02:35:47.535Z,83.22
2019-04-05T02:36:47.524Z,82.84
2019-04-05T02:37:47.515Z,82.84
2019-04-05T02:38:47.506Z,83.41
2019-04-05T02:39:47.498Z,83.22
2019-04-05T02:40:47.490Z,83.51
2019-04-05T02:41:47.476Z,83.32
2019-04-05T02:42:47.464Z,83.51
2019-04-05T02:43:47.458Z,82.93
2019-04-05T02:44:47.446Z,83.03
2019-04-05T02:45:47.453Z,83.32
2019-04-05T03:09:47.189Z,85.51
2019-04-05T03:10:47.180Z,85.08
2019-04-05T03:11:47.177Z,85.28
2019-04-05T03:12:47.158Z,85.28
2019-04-05T03:13:47.147Z,85.08
2019-04-05T03:14:47.143Z,84.99
2019-04-05T03:15:47.129Z,85.37
2019-04-05T03:16:47.119Z,84.99
2019-04-05T03:17:47.114Z,85.28
2019-04-05T03:18:47.122Z,85.56
2019-04-05T03:19:47.089Z,85.56
2019-04-05T03:20:47.078Z,85.28
2019-04-05T03:21:47.069Z,86.04
2019-04-05T03:22:47.054Z,86.22
2019-04-05T03:23:47.053Z,85.66
2019-04-05T03:24:47.037Z,86.51
2019-04-05T03:25:50.513Z,87.18
2019-04-05T03:26:47.016Z,86.9
2019-04-05T03:27:47.010Z,86.61
2019-04-05T03:28:46.993Z,87.08
2019-04-05T03:29:46.983Z,87.27
2019-04-05T03:30:46.974Z,87.27
2019-04-05T03:31:46.968Z,87.46
2019-04-05T03:32:46.980Z,87.08
2019-04-05T03:33:46.943Z,87.46
2019-04-05T03:34:46.934Z,87.08
2019-04-05T03:35:46.921Z,87.65
2019-04-05T03:36:46.915Z,87.37
2019-04-05T03:37:46.903Z,87.75
2019-04-05T03:38:46.896Z,87.65
2019-04-05T03:39:46.881Z,87.56
2019-04-05T03:40:46.866Z,87.61
2019-04-05T03:41:46.868Z,87.94
2019-04-05T03:42:46.949Z,87.94
2019-04-05T03:43:46.838Z,88.04
2019-04-05T03:44:46.863Z,88.46
2019-04-05T03:45:46.820Z,88.46
2019-04-05T03:46:58.771Z,88.75
2019-04-05T03:50:47.815Z,89.14
2019-04-05T03:51:46.748Z,89.04
2019-04-05T03:52:46.747Z,89.32
2019-04-05T03:53:46.731Z,89.61
2019-04-05T03:54:46.714Z,89.7
2019-04-05T03:55:46.704Z,89.23
2019-04-05T03:56:46.722Z,89.23
2019-04-05T03:57:46.690Z,89.8
2019-04-05T03:58:46.671Z,89.8
2019-04-05T03:59:46.663Z,89.7
2019-04-05T04:00:46.657Z,89.51
2019-04-05T04:01:46.641Z,89.61
2019-04-05T04:02:46.665Z,90.75
2019-04-05T04:03:46.617Z,90.18
2019-04-05T04:04:46.616Z,90.28
2019-04-05T04:05:46.363Z,90.28
2019-04-05T04:06:46.591Z,90.37
2019-04-05T04:07:46.573Z,90.18
2019-04-05T04:08:46.578Z,90.75
2019-04-05T04:09:46.556Z,91.22
2019-04-05T04:10:46.541Z,90.84
2019-04-05T04:11:46.532Z,91.03
2019-04-05T04:12:46.547Z,91.13
2019-04-05T04:13:46.507Z,91.13
2019-04-05T04:14:46.496Z,91.13
2019-04-05T04:15:46.556Z,91.51
2019-04-05T04:16:46.478Z,91.8
2019-04-05T04:17:46.502Z,91.61
2019-04-05T04:18:46.571Z,91.61
2019-04-05T04:19:46.467Z,91.7
2019-04-05T04:20:46.468Z,91.85
2019-04-05T04:21:46.421Z,91.75
2019-04-05T04:22:48.542Z,91.56
2019-04-05T04:23:46.402Z,91.56
2019-04-05T04:24:46.391Z,92.32
2019-04-05T04:25:46.378Z,92.22
2019-04-05T04:26:46.378Z,92.8
2019-04-05T04:27:46.358Z,92.61
2019-04-05T04:28:46.361Z,92.41
2019-04-05T04:29:46.331Z,92.89
2019-04-05T04:30:46.326Z,93.18
2019-04-05T04:31:46.313Z,92.99
2019-04-05T04:32:46.323Z,93.46
2019-04-05T04:33:46.292Z,92.99
2019-04-05T04:34:46.279Z,93.27
2019-04-05T04:35:46.269Z,94.03
2019-04-05T04:36:46.253Z,93.94
2019-04-05T04:37:46.243Z,93.84
2019-04-05T04:38:46.233Z,93.65
2019-04-05T04:39:46.238Z,94.03
2019-04-05T04:40:46.208Z,94.03
2019-04-05T04:41:46.201Z,94.13
2019-04-05T04:42:46.187Z,93.84
2019-04-05T04:43:46.177Z,94.42
2019-04-05T04:44:46.171Z,94.22
2019-04-05T04:45:46.165Z,94.42
2019-04-05T04:46:48.063Z,94.7
2019-04-05T04:47:46.134Z,94.42
2019-04-05T04:48:46.117Z,94.7
2019-04-05T04:49:46.108Z,95.27
2019-04-05T04:50:46.096Z,95.17
2019-04-05T04:51:46.083Z,94.98
2019-04-05T04:52:46.074Z,94.89
2019-04-05T04:53:46.068Z,94.7
2019-04-05T04:54:46.053Z,94.89
2019-04-05T04:55:46.037Z,94.79
2019-04-05T04:56:46.027Z,95.36
2019-04-05T04:57:46.016Z,94.98
2019-04-05T04:58:48.731Z,95.17
2019-04-05T04:59:45.998Z,95.08
2019-04-05T05:00:45.981Z,95.17
2019-04-05T05:01:45.974Z,95.12
2019-04-05T05:02:45.962Z,94.84
2019-04-05T05:03:45.990Z,94.84
2019-04-05T05:04:45.939Z,95.03
2019-04-05T05:05:45.929Z,94.46
2019-04-05T05:06:45.920Z,94.74
2019-04-05T05:07:45.906Z,94.22
2019-04-05T05:08:45.901Z,94.03
2019-04-05T05:09:45.884Z,93.55
2019-04-05T05:10:45.876Z,93.27
2019-04-05T05:11:45.866Z,93.55
2019-04-05T05:12:45.860Z,92.55
2019-04-05T05:13:45.850Z,92.18
2019-04-05T05:14:45.836Z,91.6
2019-04-05T05:15:45.826Z,90.94
2019-04-05T05:16:45.847Z,90.79
2019-04-05T05:17:57.593Z,89.75
2019-04-05T05:18:45.796Z,89.75
2019-04-05T05:19:45.790Z,89.03
2019-04-05T05:20:45.781Z,88.74
2019-04-05T05:21:45.773Z,87.5
2019-04-05T05:22:45.761Z,86.83
2019-04-05T05:23:45.755Z,85.73
2019-04-05T05:24:45.751Z,85.45
2019-04-05T05:25:46.967Z,85.64
2019-04-05T05:26:45.729Z,84.69
2019-04-05T05:27:45.720Z,84.2
2019-04-05T05:28:45.713Z,83.87
2019-04-05T05:29:45.955Z,83.58
2019-04-05T05:30:45.695Z,82.63
2019-04-05T05:31:45.691Z,82.43
2019-04-05T05:32:45.680Z,81.96
2019-04-05T05:33:45.696Z,82
2019-04-05T05:34:45.668Z,82
2019-04-05T05:35:45.655Z,81.62
2019-04-05T05:36:45.651Z,80.22
2019-04-05T05:37:45.646Z,80.32
2019-04-05T05:38:45.638Z,79.17
2019-04-05T05:39:45.629Z,78.83
2019-04-05T05:40:45.642Z,78.55
2019-04-05T05:41:45.616Z,77.78
2019-04-05T05:42:45.611Z,77.87
2019-04-05T05:43:45.604Z,77.11
2019-04-05T05:44:45.600Z,76.77
2019-04-05T05:45:45.592Z,76.39
2019-04-05T05:46:45.591Z,75.71
2019-04-05T05:47:54.507Z,75.37
2019-04-05T05:48:45.574Z,75.76
2019-04-05T05:49:45.568Z,75.47
2019-04-05T05:50:45.562Z,73.69
2019-04-05T05:51:45.322Z,73.4
2019-04-05T05:52:45.559Z,72.83
2019-04-05T05:53:45.586Z,72.25
2019-04-05T05:54:45.545Z,70.95
2019-04-05T05:55:45.558Z,70.85
2019-04-05T05:56:45.538Z,70.18
2019-04-05T05:57:45.527Z,69.89
2019-04-05T05:58:45.525Z,70.09
2019-04-05T05:59:45.520Z,70.03
2019-04-05T06:00:45.766Z,69.26
2019-04-05T06:01:45.513Z,69.07
2019-04-05T06:02:48.228Z,69.1
2019-04-05T06:03:45.504Z,68.33
2019-04-05T06:04:45.504Z,67.76
2019-04-05T06:05:45.259Z,67.09
2019-04-05T06:06:45.498Z,67.47
2019-04-05T06:07:45.494Z,66.64
2019-04-05T06:08:45.487Z,65.78
2019-04-05T06:09:47.653Z,65.88
2019-04-05T06:10:45.481Z,65.91
2019-04-05T06:11:45.476Z,65.91
2019-04-05T06:12:45.477Z,65.62
2019-04-05T06:13:45.476Z,64.37
2019-04-05T06:14:45.499Z,64.66
2019-04-05T06:15:45.469Z,64.5
2019-04-05T06:16:49.002Z,64.59
2019-04-05T06:17:45.459Z,64.18
2019-04-05T06:18:48.437Z,64.66
2019-04-05T06:19:45.456Z,65.62
2019-04-05T06:20:45.454Z,65.43
2019-04-05T06:21:45.449Z,65.05
2019-04-05T06:22:47.546Z,65.14
2019-04-05T06:23:45.443Z,65.14
2019-04-05T06:24:45.442Z,64.76
2019-04-05T06:25:45.440Z,65.68
2019-04-05T06:26:45.435Z,65.88
2019-04-05T06:27:45.429Z,66.26
2019-04-05T06:28:45.589Z,66.89
2019-04-05T06:29:45.426Z,67.09
2019-04-05T06:30:45.418Z,68.4
2019-04-05T06:31:45.663Z,68.97
2019-04-05T06:32:45.409Z,70.09
2019-04-05T06:33:45.404Z,70.24
2019-04-05T06:34:45.398Z,71.2
2019-04-05T06:35:45.397Z,72.06
2019-04-05T06:36:45.394Z,72.25
2019-04-05T06:37:45.390Z,72.98
2019-04-05T06:38:45.395Z,74.32
2019-04-05T06:39:45.378Z,75.05
2019-04-05T06:40:45.371Z,75.62
2019-04-05T06:41:45.364Z,76.73
2019-04-05T06:42:45.360Z,77.69
2019-04-05T06:43:45.355Z,77.87
2019-04-05T06:44:45.352Z,78.79
2019-04-05T06:45:45.407Z,78.89
2019-04-05T06:46:45.341Z,79.46
2019-04-05T06:47:45.333Z,80.13
2019-04-05T06:48:45.321Z,80.41
2019-04-05T06:49:45.317Z,80.41
2019-04-05T06:50:47.238Z,80.85
2019-04-05T06:51:45.319Z,81.43
2019-04-05T06:52:45.299Z,81.33
2019-04-05T06:53:45.057Z,81.71
2019-04-05T06:54:45.280Z,82
2019-04-05T06:55:45.273Z,82.29
2019-04-05T06:56:45.267Z,82.67
2019-04-05T06:57:45.308Z,82.95
2019-04-05T06:58:48.713Z,83.53
2019-04-05T06:59:45.250Z,84.2
2019-04-05T07:00:58.703Z,84.67
2019-04-05T07:01:45.265Z,84.72
2019-04-05T07:02:45.478Z,85.58
2019-04-05T07:03:45.216Z,85.3
2019-04-05T07:04:45.206Z,85.11
2019-04-05T07:05:45.204Z,86.16
2019-04-05T07:06:45.194Z,86.25
2019-04-05T07:07:45.185Z,86.63
2019-04-05T07:08:56.079Z,86.82
2019-04-05T07:09:45.170Z,86.92
2019-04-05T07:10:47.675Z,87.49
2019-04-05T07:11:45.155Z,87.78
2019-04-05T07:12:45.226Z,87.54
2019-04-05T07:13:45.141Z,87.83
2019-04-05T07:14:45.129Z,88.12
2019-04-05T07:15:45.122Z,88.59
2019-04-05T07:16:45.114Z,88.4
2019-04-05T07:17:45.112Z,88.88
2019-04-05T07:18:45.099Z,88.98
2019-04-05T07:19:45.096Z,89.74
2019-04-05T07:20:45.084Z,89.36
2019-04-05T07:21:45.074Z,89.45
2019-04-05T07:22:45.065Z,89.36
2019-04-05T07:23:45.056Z,90.22
2019-04-05T07:24:45.050Z,90.22
2019-04-05T07:25:45.046Z,90.31
2019-04-05T07:26:45.034Z,90.88
2019-04-05T07:27:45.027Z,90.79
2019-04-05T07:28:45.019Z,91.55
2019-04-05T07:29:45.012Z,91.46
2019-04-05T07:30:45.002Z,91.64
2019-04-05T07:31:44.993Z,92.08
2019-04-05T07:32:44.984Z,92.36
2019-04-05T07:33:45.226Z,91.88
2019-04-05T07:34:44.965Z,92.55
2019-04-05T07:35:44.958Z,92.55
2019-04-05T07:36:44.948Z,92.6
2019-04-05T07:37:44.941Z,92.88
2019-04-05T07:38:44.936Z,92.03
2019-04-05T07:39:44.923Z,92.69
2019-04-05T07:40:44.917Z,92.69
2019-04-05T07:41:44.911Z,92.41
2019-04-05T07:42:44.903Z,92.6
2019-04-05T07:43:44.889Z,92.41
2019-04-05T07:44:44.885Z,92.5
2019-04-05T07:45:46.037Z,92.32
2019-04-05T07:46:46.495Z,92.6
2019-04-05T07:47:44.863Z,93.17
2019-04-05T07:48:47.703Z,92.98
2019-04-05T07:49:44.841Z,93.08
2019-04-05T07:50:44.829Z,92.32
2019-04-05T07:51:44.825Z,92.98
2019-04-05T07:52:44.817Z,92.03
2019-04-05T07:53:44.803Z,92.03
2019-04-05T07:54:44.795Z,91.93
2019-04-05T07:55:44.789Z,91.93
2019-04-05T07:56:46.198Z,92.17
2019-04-05T07:57:44.770Z,92.5
2019-04-05T07:58:44.760Z,92.17
2019-04-05T07:59:44.755Z,91.88
2019-04-05T08:00:44.750Z,91.21
2019-04-05T08:01:44.737Z,91.5
2019-04-05T08:02:44.727Z,91.41
2019-04-05T08:03:44.721Z,91.78
2019-04-05T08:04:44.965Z,91.41
2019-04-05T08:05:44.717Z,91.41
2019-04-05T08:06:44.699Z,91.78
2019-04-05T08:07:44.686Z,91.45
2019-04-05T08:08:44.680Z,91.45
2019-04-05T08:09:44.671Z,91.36
2019-04-05T08:10:44.665Z,91.16
2019-04-05T08:11:44.656Z,90.69
2019-04-05T08:12:44.646Z,90.69
2019-04-05T08:13:44.636Z,89.83
2019-04-05T08:14:44.770Z,90.16
2019-04-05T08:15:44.625Z,89.78
2019-04-05T08:16:44.615Z,89.87
2019-04-05T08:17:44.608Z,89.39
2019-04-05T08:18:56.626Z,88.82
2019-04-05T08:19:44.592Z,88.34
2019-04-05T08:20:44.586Z,88.82
2019-04-05T08:21:44.582Z,88.39
2019-04-05T08:22:44.573Z,88.29
2019-04-05T08:23:44.568Z,87.91
2019-04-05T08:24:44.556Z,88.1
2019-04-05T08:25:44.553Z,87.91
2019-04-05T08:26:44.541Z,87.24
2019-04-05T08:27:44.533Z,87.24
2019-04-05T08:28:44.543Z,87.15
2019-04-05T08:29:44.521Z,86.52
2019-04-05T08:30:44.514Z,86.67
2019-04-05T08:31:44.504Z,86.43
2019-04-05T08:32:44.498Z,86.38
2019-04-05T08:33:44.495Z,86.29
2019-04-05T08:34:44.487Z,86.29
2019-04-05T08:35:44.484Z,86.47
2019-04-05T08:36:44.471Z,86.71
2019-04-05T08:37:44.463Z,86.43
2019-04-05T08:38:44.457Z,86.14
2019-04-05T08:39:44.450Z,85.85
2019-04-05T08:40:44.443Z,85.57
2019-04-05T08:41:44.437Z,85.66
2019-04-05T08:42:44.428Z,85.94
2019-04-05T08:43:47.020Z,86.04
2019-04-05T08:44:44.426Z,85.66
2019-04-05T08:45:44.408Z,85.75
2019-04-05T08:46:44.404Z,85.66
2019-04-05T08:47:44.396Z,85.75
2019-04-05T08:48:44.388Z,85.57
2019-04-05T08:49:44.384Z,85.47
2019-04-05T08:50:44.377Z,85.66
2019-04-05T08:51:44.373Z,86.14
2019-04-05T08:52:44.361Z,85.47
2019-04-05T08:53:44.363Z,86.14
2019-04-05T08:54:44.348Z,86.04
2019-04-05T08:55:44.342Z,85.94
2019-04-05T08:56:44.334Z,86.33
2019-04-05T08:57:44.326Z,86.04
2019-04-05T08:58:44.332Z,86.43
2019-04-05T08:59:44.316Z,86.19
2019-04-05T09:00:44.308Z,86.38
2019-04-05T09:01:44.310Z,86.96
2019-04-05T09:02:44.361Z,87.15
2019-04-05T09:03:44.296Z,87.24
2019-04-05T09:04:44.282Z,87.34
2019-04-05T09:05:44.282Z,87.05
2019-04-05T09:06:44.271Z,87.53
2019-04-05T09:07:44.269Z,87.43
2019-04-05T09:08:44.255Z,87.24
2019-04-05T09:09:44.248Z,87.72
2019-04-05T09:10:44.240Z,87.05
2019-04-05T09:11:44.234Z,87.62
2019-04-05T09:12:44.226Z,87.34
2019-04-05T09:13:44.223Z,87.05
2019-04-05T09:14:44.218Z,87.38
2019-04-05T09:15:44.206Z,87.15
2019-04-05T09:16:44.199Z,87.24
2019-04-05T09:17:44.192Z,87
2019-04-05T09:18:44.186Z,86.61
2019-04-05T09:19:44.179Z,86.96
2019-04-05T09:20:44.179Z,86.67
2019-04-05T09:21:44.165Z,86.8
2019-04-05T09:22:44.159Z,86.67
2019-04-05T09:23:44.155Z,86.76
2019-04-05T09:24:44.146Z,87.15
2019-04-05T09:25:44.145Z,87.24
2019-04-05T09:26:44.131Z,87.09
2019-04-05T09:27:44.129Z,86.8
2019-04-05T09:28:44.119Z,86.61
2019-04-05T09:29:44.109Z,86.23
2019-04-05T09:30:44.106Z,86.14
2019-04-05T09:31:44.103Z,85.47
2019-04-05T09:32:44.090Z,85.57
2019-04-05T09:33:44.089Z,85.66
2019-04-05T09:34:44.077Z,85.66
2019-04-05T09:35:44.077Z,85.75
2019-04-05T09:36:44.065Z,85.66
2019-04-05T09:37:44.061Z,85.66
2019-04-05T09:38:44.051Z,85.85
2019-04-05T09:39:44.046Z,85.47
2019-04-05T09:40:44.039Z,85.38
2019-04-05T09:41:44.040Z,85.71
2019-04-05T09:42:44.054Z,85.03
2019-04-05T09:43:44.028Z,85.13
2019-04-05T09:44:44.022Z,84.94
2019-04-05T09:45:44.008Z,85.03
2019-04-05T09:46:51.227Z,84.55
2019-04-05T09:47:43.994Z,84.17
2019-04-05T09:48:43.988Z,84.36
2019-04-05T09:49:43.981Z,83.64
2019-04-05T09:50:43.976Z,83.54
2019-04-05T09:51:43.971Z,83.45
2019-04-05T09:52:44.009Z,82.49
2019-04-05T09:53:43.957Z,82.11
2019-04-05T09:54:43.954Z,81.82
2019-04-05T09:55:43.957Z,82.2
2019-04-05T09:56:43.702Z,81.44
2019-04-05T09:57:43.935Z,82.11
2019-04-05T09:58:43.940Z,81.67
2019-04-05T09:59:43.925Z,81.2
2019-04-05T10:00:43.917Z,80.9
2019-04-05T10:01:43.667Z,79.75
2019-04-05T10:02:43.963Z,79.75
2019-04-05T10:03:43.899Z,79.66
2019-04-05T10:04:43.894Z,79.13
2019-04-05T10:05:43.885Z,79.13
2019-04-05T10:06:43.882Z,78.93
2019-04-05T10:07:57.120Z,78.27
2019-04-05T10:08:43.879Z,78.07
2019-04-05T10:09:43.867Z,78.74
2019-04-05T10:10:43.858Z,77.97
2019-04-05T10:11:43.857Z,77.97
2019-04-05T10:12:43.852Z,78.36
2019-04-05T10:13:43.858Z,78.02
2019-04-05T10:14:43.841Z,78.02
2019-04-05T10:15:43.836Z,77.82
2019-04-05T10:16:43.832Z,77.15
2019-04-05T10:17:43.823Z,76.96
2019-04-05T10:18:43.820Z,76.29
2019-04-05T10:19:52.246Z,76.29
2019-04-05T10:20:43.808Z,76.32
2019-04-05T10:21:43.806Z,76.42
2019-04-05T10:22:43.799Z,75.85
2019-04-05T10:23:43.798Z,76.14
2019-04-05T10:24:43.789Z,75.85
2019-04-05T10:25:46.343Z,75.18
2019-04-05T10:26:43.781Z,74.98
2019-04-05T10:27:43.778Z,74.51
2019-04-05T10:28:43.773Z,75.08
2019-04-05T10:29:43.766Z,74.93
2019-04-05T10:30:43.765Z,73.68
2019-04-05T10:31:43.819Z,72.43
2019-04-05T10:32:46.040Z,71.41
2019-04-05T10:33:43.783Z,71.31
2019-04-05T10:34:43.754Z,71.31
2019-04-05T10:35:43.746Z,71.22
2019-04-05T10:36:43.738Z,70.64
2019-04-05T10:37:43.735Z,70.64
2019-04-05T10:38:43.727Z,70.84
2019-04-05T10:39:43.724Z,70.26
2019-04-05T10:40:43.725Z,70.45
2019-04-05T10:41:43.734Z,70.29
2019-04-05T10:42:43.712Z,69.53
2019-04-05T10:43:43.710Z,69.05
2019-04-05T10:44:43.706Z,68.28
2019-04-05T10:45:43.701Z,68.31
2019-04-05T10:46:43.698Z,68.21
2019-04-05T10:47:43.695Z,67.93
2019-04-05T10:48:43.691Z,67.48
2019-04-05T10:49:43.693Z,67
2019-04-05T10:50:43.690Z,66.46
2019-04-05T10:51:43.682Z,66.07
2019-04-05T10:52:43.680Z,65.11
2019-04-05T10:53:43.675Z,64.82
2019-04-05T10:54:43.679Z,64.63
2019-04-05T10:55:43.676Z,64.82
2019-04-05T10:56:43.666Z,64.28
2019-04-05T10:57:43.670Z,64.37
2019-04-05T10:58:43.665Z,63.7
2019-04-05T10:59:43.663Z,63.89
2019-04-05T11:00:43.658Z,63.41
2019-04-05T11:01:43.655Z,63.51
2019-04-05T11:02:43.651Z,63.02
2019-04-05T11:03:43.649Z,62.93
2019-04-05T11:04:43.650Z,63.31
2019-04-05T11:05:43.644Z,63.41
2019-04-05T11:06:43.640Z,63.6
2019-04-05T11:07:43.637Z,63.22
2019-04-05T11:08:43.635Z,62.93
2019-04-05T11:09:43.634Z,62.74
2019-04-05T11:10:43.634Z,63.02
2019-04-05T11:11:43.629Z,63.09
2019-04-05T11:12:43.627Z,63.57
2019-04-05T11:13:43.623Z,63.95
2019-04-05T11:14:43.622Z,64.34
2019-04-05T11:15:43.616Z,63.86
2019-04-05T11:16:43.616Z,63.76
2019-04-05T11:17:44.965Z,63.73
2019-04-05T11:18:45.081Z,64.22
2019-04-05T11:19:43.606Z,64.6
2019-04-05T11:20:43.607Z,64.4
2019-04-05T11:21:43.605Z,64.6
2019-04-05T11:22:46.466Z,65.56
2019-04-05T11:23:43.594Z,65.46
2019-04-05T11:24:43.600Z,64.95
2019-04-05T11:25:43.590Z,65.81
2019-04-05T11:26:43.584Z,65.72
2019-04-05T11:27:43.583Z,66
2019-04-05T11:28:43.580Z,66
2019-04-05T11:29:43.574Z,66.1
2019-04-05T11:30:43.578Z,65.81
2019-04-05T11:31:55.890Z,65.72
2019-04-05T11:32:43.570Z,66
2019-04-05T11:33:43.564Z,65.91
2019-04-05T11:34:43.565Z,66.68
2019-04-05T11:35:43.553Z,66.3
2019-04-05T11:36:43.550Z,66
2019-04-05T11:37:43.560Z,65.91
2019-04-05T11:38:43.547Z,65.72
2019-04-05T11:39:43.541Z,66.1
2019-04-05T11:40:43.540Z,66
2019-04-05T11:41:43.531Z,66.2
2019-04-05T11:42:43.529Z,65.81
2019-04-05T11:43:43.779Z,66.39
2019-04-05T11:44:43.527Z,66.3
2019-04-05T11:45:43.519Z,66.3
2019-04-05T11:46:43.515Z,66.55
2019-04-05T11:47:43.527Z,66.46
2019-04-05T11:48:43.896Z,66.55
2019-04-05T11:49:43.505Z,66.55
2019-04-05T11:50:43.499Z,66.64
2019-04-05T11:51:45.562Z,67.22
2019-04-05T11:52:43.491Z,67.32
2019-04-05T11:53:43.486Z,68.08
2019-04-05T11:54:43.751Z,67.99
2019-04-05T11:55:46.368Z,67.9
2019-04-05T11:56:43.478Z,67.45
2019-04-05T11:57:44.343Z,66.97
2019-04-05T11:58:43.470Z,67.16
2019-04-05T11:59:43.465Z,66.87
2019-04-05T12:00:43.466Z,66.52
2019-04-05T12:01:43.476Z,66.14
2019-04-05T12:02:43.464Z,66.14
2019-04-05T12:03:43.451Z,66.14
2019-04-05T12:04:45.252Z,66.58
2019-04-05T12:05:43.447Z,66.58
2019-04-05T12:06:43.441Z,65.91
2019-04-05T12:07:43.438Z,66
2019-04-05T12:08:43.434Z,66
2019-04-05T12:09:43.431Z,65.91
2019-04-05T12:10:43.425Z,66.74
2019-04-05T12:11:46.241Z,66.74
2019-04-05T12:12:43.420Z,67.03
2019-04-05T12:13:43.416Z,67.41
2019-04-05T12:14:43.662Z,67.41
2019-04-05T12:15:43.409Z,67.22
2019-04-05T12:16:43.405Z,67.9
2019-04-05T12:17:43.402Z,68.08
2019-04-05T12:18:43.174Z,67.99
2019-04-05T12:19:43.395Z,68.37
2019-04-05T12:20:59.884Z,67.99
2019-04-05T12:21:43.402Z,68.18
2019-04-05T12:22:43.407Z,67.99
2019-04-05T12:23:43.378Z,67.99
2019-04-05T12:24:43.450Z,67.7
2019-04-05T12:25:43.371Z,68.28
2019-04-05T12:26:45.079Z,68.28
2019-04-05T12:27:43.366Z,68.08
2019-04-05T12:28:43.358Z,68.57
2019-04-05T12:29:43.353Z,68.57
2019-04-05T12:30:45.752Z,68.76
2019-04-05T12:31:43.348Z,68.66
2019-04-05T12:32:44.130Z,68.66
2019-04-05T12:33:43.339Z,68.66
2019-04-05T12:34:43.338Z,68.85
2019-04-05T12:35:43.334Z,68.66
2019-04-05T12:36:43.331Z,67.9
2019-04-05T12:37:55.422Z,68.08
2019-04-05T12:38:43.075Z,67.99
2019-04-05T12:39:43.319Z,68.76
2019-04-05T12:40:44.188Z,68.66
2019-04-05T12:41:47.050Z,68.95
2019-04-05T12:42:45.959Z,68.82
2019-04-05T12:43:46.414Z,68.53
2019-04-05T12:44:47.282Z,68.44
2019-04-05T12:45:46.879Z,69.3
2019-04-05T12:46:43.412Z,69.49
2019-04-05T12:47:45.174Z,69.97
2019-04-05T12:48:45.310Z,69.87
2019-04-05T12:49:45.364Z,69.87
2019-04-05T12:50:47.107Z,69.87
2019-04-05T12:51:43.325Z,70.26
2019-04-05T12:52:43.261Z,70.07
2019-04-05T12:53:43.261Z,69.01
2019-04-05T12:54:43.253Z,69.2
2019-04-05T12:55:43.253Z,69.3
2019-04-05T12:56:43.246Z,69.3
2019-04-05T12:57:43.237Z,69.4
2019-04-05T12:58:42.992Z,69.2
2019-04-05T12:59:43.231Z,69.87
2019-04-05T13:00:43.230Z,70.01
2019-04-05T13:01:43.483Z,69.24
2019-04-05T13:02:43.221Z,69.49
2019-04-05T13:03:43.219Z,69.05
2019-04-05T13:04:43.222Z,69.05
2019-04-05T13:05:43.205Z,69.24
2019-04-05T13:06:44.796Z,69.34
2019-04-05T13:07:43.196Z,69.05
2019-04-05T13:08:43.192Z,68.76
2019-04-05T13:09:45.585Z,68.47
2019-04-05T13:10:43.205Z,68.47
2019-04-05T13:11:43.181Z,69.34
2019-04-05T13:12:43.176Z,69.24
2019-04-05T13:13:43.174Z,68.66
2019-04-05T13:14:43.168Z,68.57
2019-04-05T13:15:43.165Z,68.57
2019-04-05T13:16:43.159Z,68.47
2019-04-05T13:17:43.158Z,68.76
2019-04-05T13:18:43.152Z,67.7
2019-04-05T13:19:43.146Z,67.8
2019-04-05T13:20:43.142Z,67.64
2019-04-05T13:21:43.138Z,67.61
2019-04-05T13:22:43.133Z,67.99
2019-04-05T13:23:43.163Z,67.9
2019-04-05T13:24:43.128Z,67.51
2019-04-05T13:25:44.058Z,68.08
2019-04-05T13:26:44.949Z,68.18
2019-04-05T13:27:44.365Z,67.99
2019-04-05T13:28:43.109Z,68.18
2019-04-05T13:29:43.106Z,67.93
2019-04-05T13:30:43.103Z,67.35
2019-04-05T13:31:43.098Z,67.64
2019-04-05T13:32:43.095Z,67.22
2019-04-05T13:33:43.092Z,68.18
2019-04-05T13:34:43.085Z,67.8
2019-04-05T13:35:43.086Z,67.9
2019-04-05T13:36:43.077Z,68.28
2019-04-05T13:37:43.075Z,68.18
2019-04-05T13:38:54.166Z,68.66
2019-04-05T13:39:43.070Z,68.37
2019-04-05T13:40:43.065Z,68.57
2019-04-05T13:41:43.059Z,68.85
2019-04-05T13:42:43.263Z,69.05
2019-04-05T13:43:43.065Z,68.85
2019-04-05T13:44:43.044Z,68.08
2019-04-05T13:45:43.043Z,68.12
2019-04-05T13:46:45.216Z,68.18
2019-04-05T13:47:43.036Z,68.76
2019-04-05T13:48:43.117Z,68.76
2019-04-05T13:49:43.809Z,68.57
2019-04-05T13:50:44.430Z,69.14
2019-04-05T13:51:44.999Z,69.72
2019-04-05T13:52:44.590Z,69.43
2019-04-05T13:53:43.555Z,69.14
2019-04-05T13:54:43.491Z,69.14
2019-04-05T13:55:43.776Z,69.05
2019-04-05T13:56:44.218Z,69.24
2019-04-05T13:57:43.635Z,69.24
2019-04-05T13:58:45.969Z,68.37
2019-04-05T13:59:44.637Z,68.57
2019-04-05T14:00:42.976Z,68.47
2019-04-05T14:01:42.973Z,68.76
2019-04-05T14:02:42.977Z,69.37
2019-04-05T14:03:42.970Z,68.66
2019-04-05T14:04:42.967Z,68.7
2019-04-05T14:05:42.957Z,68.76
2019-04-05T14:06:42.955Z,68.31
2019-04-05T14:07:42.953Z,68.31
2019-04-05T14:08:44.362Z,68.7
2019-04-05T14:09:43.610Z,68.12
2019-04-05T14:10:44.307Z,68.12
2019-04-05T14:11:42.937Z,68.18
2019-04-05T14:12:43.405Z,67.61
2019-04-05T14:13:45.213Z,68.76
2019-04-05T14:14:44.465Z,68.7
2019-04-05T14:15:45.255Z,68.89
2019-04-05T14:16:45.308Z,68.51
2019-04-05T14:17:49.077Z,69.37
2019-04-05T14:18:47.946Z,69.24
2019-04-05T14:19:42.901Z,69.27
2019-04-05T14:20:42.897Z,69.72
2019-04-05T14:21:52.556Z,70.29
2019-04-05T14:22:42.886Z,70.2
2019-04-05T14:23:42.891Z,70.58
2019-04-05T14:24:42.885Z,70.68
2019-04-05T14:25:42.878Z,70.68
2019-04-05T14:26:45.933Z,71.16
2019-04-05T14:27:42.866Z,70.39
2019-04-05T14:28:42.870Z,70.58
2019-04-05T14:29:42.868Z,70.87
2019-04-05T14:30:42.861Z,70.68
2019-04-05T14:31:42.632Z,70.78
2019-04-05T14:32:42.848Z,71.06
2019-04-05T14:33:42.852Z,70.68
2019-04-05T14:34:42.838Z,71.35
2019-04-05T14:35:42.835Z,70.97
2019-04-05T14:36:43.299Z,71.51
2019-04-05T14:37:42.826Z,71.61
2019-04-05T14:38:42.822Z,71.7
2019-04-05T14:39:42.825Z,71.61
2019-04-05T14:40:42.811Z,71.89
2019-04-05T14:41:42.808Z,71.7
2019-04-05T14:42:44.871Z,72.28
2019-04-05T14:43:44.899Z,71.89
2019-04-05T14:44:42.794Z,71.8
2019-04-05T14:45:42.788Z,71.89